Time;durP1;ratioP1;P1;durP2;ratioP2;P2;SDS_P1;SDS_P2;PMS_P1;PMS_P2;Temp;Humidity;BMP_temperature;BMP_pressure;BME280_temperature;BME280_humidity;BME280_pressure;Samples;Min_cycle;Max_cycle;Signal;HPM_P1;HPM_P2
2023/03/29 00:01:15;;;;;;;;;;;5.60;99.90;;;;;;5073116;28;20037;-72
2023/03/29 00:03:44;;;;;;;5.13;1.92;;;5.50;99.90;;;;;;5079980;28;19921;-72
2023/03/29 00:06:13;;;;;;;2.75;1.70;;;5.50;99.90;;;;;;5093484;28;20044;-74
2023/03/29 00:08:41;;;;;;;5.35;2.17;;;5.50;99.90;;;;;;5062319;28;20123;-73
2023/03/29 00:11:07;;;;;;;3.22;2.08;;;5.50;99.90;;;;;;5092589;28;20109;-72
2023/03/29 00:13:33;;;;;;;3.72;2.17;;;5.50;99.90;;;;;;5076662;28;20038;-73
2023/03/29 00:15:59;;;;;;;2.58;1.92;;;5.50;99.90;;;;;;5079364;28;20090;-73
2023/03/29 00:18:25;;;;;;;3.40;2.05;;;5.50;99.90;;;;;;5081135;28;20058;-73
2023/03/29 00:20:58;;;;;;;2.85;2.00;;;5.50;99.90;;;;;;5066726;28;20036;-73
2023/03/29 00:23:24;;;;;;;3.33;1.92;;;5.50;99.90;;;;;;5084539;28;20059;-73
2023/03/29 00:25:52;;;;;;;4.68;1.90;;;5.50;99.90;;;;;;5055785;28;20047;-73
2023/03/29 00:28:17;;;;;;;4.80;2.10;;;5.50;99.90;;;;;;5078101;28;20046;-73
2023/03/29 00:30:43;;;;;;;3.95;2.10;;;5.50;99.90;;;;;;5057699;28;20040;-72
2023/03/29 00:33:10;;;;;;;3.33;2.17;;;5.50;99.90;;;;;;5070520;28;20552;-73
2023/03/29 00:35:38;;;;;;;3.90;1.88;;;5.50;99.90;;;;;;5083755;28;20087;-73
2023/03/29 00:38:05;;;;;;;3.80;1.88;;;5.50;99.90;;;;;;5078791;28;20054;-72
2023/03/29 00:40:34;;;;;;;3.53;2.05;;;5.50;99.90;;;;;;5055983;28;20094;-72
2023/03/29 00:42:59;;;;;;;4.32;2.00;;;5.50;99.90;;;;;;5081184;28;20040;-72
2023/03/29 00:45:29;;;;;;;3.38;1.88;;;5.50;99.90;;;;;;5084812;28;20031;-72
2023/03/29 00:48:01;;;;;;;3.70;2.33;;;5.50;99.90;;;;;;5076409;28;20032;-73
2023/03/29 00:50:31;;;;;;;3.17;2.05;;;5.50;99.90;;;;;;5080156;28;20132;-73
2023/03/29 00:53:12;;;;;;;3.67;2.28;;;5.50;99.90;;;;;;5076178;28;20429;-72
2023/03/29 00:55:58;;;;;;;3.83;2.10;;;5.50;99.90;;;;;;5072918;28;20040;-73
2023/03/29 00:58:30;;;;;;;4.32;2.00;;;5.50;99.90;;;;;;5078103;28;20414;-73
2023/03/29 01:01:10;;;;;;;3.88;2.50;;;5.50;99.90;;;;;;5055186;28;20056;-73
2023/03/29 01:03:45;;;;;;;5.00;2.72;;;5.50;99.90;;;;;;5090798;28;20039;-72
2023/03/29 01:06:13;;;;;;;6.78;3.05;;;5.50;99.90;;;;;;5074388;28;20427;-73
2023/03/29 01:09:01;;;;;;;5.47;3.45;;;5.50;99.90;;;;;;5076467;28;20063;-73
2023/03/29 01:11:31;;;;;;;4.43;2.67;;;5.50;99.90;;;;;;5073696;28;20511;-73
2023/03/29 01:14:05;;;;;;;4.13;2.55;;;5.50;99.90;;;;;;5080672;28;20129;-73
2023/03/29 01:16:34;;;;;;;4.72;2.55;;;5.50;99.90;;;;;;5073099;28;20044;-73
2023/03/29 01:19:01;;;;;;;3.58;2.30;;;5.50;99.90;;;;;;5079745;28;20470;-73
2023/03/29 01:21:31;;;;;;;4.57;2.38;;;5.60;99.90;;;;;;5087364;28;20067;-73
2023/03/29 01:24:24;;;;;;;3.78;2.30;;;5.60;99.90;;;;;;5086014;28;20048;-73
2023/03/29 01:27:27;;;;;;;3.17;2.00;;;5.60;99.90;;;;;;5082415;28;20048;-73
2023/03/29 01:30:03;;;;;;;4.07;2.58;;;5.60;99.90;;;;;;5062583;28;20078;-72
2023/03/29 01:32:49;;;;;;;4.20;2.45;;;5.60;99.90;;;;;;5085124;28;20084;-73
2023/03/29 01:35:23;;;;;;;3.20;1.90;;;5.60;99.90;;;;;;5079566;28;20483;-73
2023/03/29 01:38:16;;;;;;;2.72;1.80;;;5.50;99.90;;;;;;5070655;28;20032;-73
2023/03/29 01:40:41;;;;;;;3.45;1.92;;;5.50;99.90;;;;;;5079164;28;20403;-74
2023/03/29 01:43:42;;;;;;;2.92;1.90;;;5.50;99.90;;;;;;5056169;28;20056;-73
2023/03/29 01:46:12;;;;;;;4.10;2.00;;;5.50;99.90;;;;;;5070132;28;20051;-72
2023/03/29 01:49:00;;;;;;;3.90;2.00;;;5.50;99.90;;;;;;5060323;28;20120;-73
2023/03/29 01:51:40;;;;;;;3.42;2.20;;;5.50;99.90;;;;;;5073146;28;20443;-72
2023/03/29 01:54:17;;;;;;;5.25;1.90;;;5.50;99.90;;;;;;5077760;28;20052;-73
2023/03/29 01:56:45;;;;;;;;;;;5.50;99.90;;;;;;5083031;28;20495;-73
2023/03/29 01:59:17;;;;;;;3.70;2.25;;;5.50;99.90;;;;;;5061259;28;20436;-73
2023/03/29 02:01:50;;;;;;;2.75;1.80;;;5.50;99.90;;;;;;5089548;28;20048;-73
2023/03/29 02:04:22;;;;;;;4.90;2.40;;;5.50;99.90;;;;;;5090208;28;20119;-73
2023/03/29 02:06:53;;;;;;;6.80;2.60;;;5.50;99.90;;;;;;5081743;28;20070;-73
2023/03/29 02:09:19;;;;;;;3.45;2.42;;;5.50;99.90;;;;;;5087712;28;20177;-73
2023/03/29 02:11:46;;;;;;;3.80;2.33;;;5.50;99.90;;;;;;5082871;28;20055;-73
2023/03/29 02:14:12;;;;;;;4.38;2.47;;;5.50;99.90;;;;;;5055650;28;20041;-73
2023/03/29 02:16:39;;;;;;;6.45;2.80;;;5.50;99.90;;;;;;5080602;28;20052;-73
2023/03/29 02:19:06;;;;;;;4.88;2.70;;;5.50;99.90;;;;;;5087535;28;20043;-73
2023/03/29 02:21:38;;;;;;;6.45;2.75;;;5.50;99.90;;;;;;5086716;28;20399;-73
2023/03/29 02:24:07;;;;;;;4.25;2.50;;;5.50;99.90;;;;;;5064612;28;20059;-74
2023/03/29 02:26:34;;;;;;;4.45;2.40;;;5.50;99.90;;;;;;5082621;28;20044;-74
2023/03/29 02:29:00;;;;;;;3.58;2.70;;;5.50;99.90;;;;;;5069628;28;20060;-73
2023/03/29 02:31:47;;;;;;;3.55;2.92;;;5.50;99.90;;;;;;5074830;28;20041;-73
2023/03/29 02:34:18;;;;;;;4.13;2.75;;;5.50;99.90;;;;;;5072639;28;20036;-73
2023/03/29 02:36:55;;;;;;;4.13;2.78;;;5.50;99.90;;;;;;5074949;28;20037;-73
2023/03/29 02:39:24;;;;;;;5.70;3.00;;;5.50;99.90;;;;;;5052375;28;20048;-72
2023/03/29 02:41:51;;;;;;;3.72;2.78;;;5.60;99.90;;;;;;5077237;28;20044;-73
2023/03/29 02:44:21;;;;;;;4.53;2.60;;;5.60;99.90;;;;;;5083628;28;20059;-73
2023/03/29 02:46:53;;;;;;;5.88;2.80;;;5.60;99.90;;;;;;5072533;28;20472;-72
2023/03/29 02:49:19;;;;;;;4.75;2.88;;;5.60;99.90;;;;;;5073137;28;20048;-73
2023/03/29 02:51:47;;;;;;;5.25;2.83;;;5.60;99.90;;;;;;5070331;28;20463;-72
2023/03/29 02:54:19;;;;;;;3.90;3.13;;;5.60;99.90;;;;;;5070256;28;20048;-73
2023/03/29 02:56:54;;;;;;;4.53;3.00;;;5.60;99.90;;;;;;5083717;28;20036;-72
2023/03/29 02:59:23;;;;;;;5.45;2.97;;;5.60;99.90;;;;;;5085670;28;20059;-72
2023/03/29 03:01:49;;;;;;;4.15;2.60;;;5.60;99.90;;;;;;5078141;28;20051;-72
2023/03/29 03:04:19;;;;;;;3.58;2.63;;;5.60;99.90;;;;;;5054696;28;20048;-72
2023/03/29 03:06:46;;;;;;;3.75;2.70;;;5.60;99.90;;;;;;5060559;28;20045;-73
2023/03/29 03:09:12;;;;;;;3.50;2.78;;;5.60;99.90;;;;;;5061975;28;20095;-73
2023/03/29 03:11:38;;;;;;;4.50;2.88;;;5.60;99.90;;;;;;5054739;28;20076;-73
2023/03/29 03:14:04;;;;;;;4.63;2.60;;;5.60;99.90;;;;;;5073992;28;20123;-73
2023/03/29 03:16:31;;;;;;;5.25;3.00;;;5.60;99.90;;;;;;5075463;28;20125;-74
2023/03/29 03:18:56;;;;;;;5.68;2.90;;;5.60;99.90;;;;;;5082554;28;20082;-73
2023/03/29 03:21:23;;;;;;;3.85;2.78;;;5.60;99.90;;;;;;5084902;28;20461;-73
2023/03/29 03:23:48;;;;;;;;;;;5.60;99.90;;;;;;5043132;28;20107;-74
2023/03/29 03:26:16;;;;;;;4.82;3.17;;;5.60;99.90;;;;;;5074925;28;19920;-74
2023/03/29 03:28:44;;;;;;;4.00;2.83;;;5.60;99.90;;;;;;5089168;28;20051;-74
2023/03/29 03:31:12;;;;;;;4.60;2.90;;;5.60;99.90;;;;;;5085723;28;20044;-74
2023/03/29 03:33:39;;;;;;;4.13;2.90;;;5.60;99.90;;;;;;5054428;28;20044;-72
2023/03/29 03:36:07;;;;;;;5.55;3.17;;;5.60;99.90;;;;;;5083663;28;20055;-73
2023/03/29 03:38:34;;;;;;;3.97;2.65;;;5.60;99.90;;;;;;5050311;28;20048;-73
2023/03/29 03:41:01;;;;;;;5.70;2.75;;;5.60;99.90;;;;;;5090071;28;20124;-73
2023/03/29 03:43:27;;;;;;;5.20;2.65;;;5.60;99.90;;;;;;5057365;28;20080;-73
2023/03/29 03:45:53;;;;;;;;;;;5.60;99.90;;;;;;5084479;28;20062;-73
2023/03/29 03:48:19;;;;;;;5.63;2.78;;;5.60;99.90;;;;;;5088810;28;19920;-73
2023/03/29 03:50:53;;;;;;;4.60;2.70;;;5.60;99.90;;;;;;5090033;28;20433;-73
2023/03/29 03:53:20;;;;;;;3.90;2.95;;;5.60;99.90;;;;;;5053735;28;20037;-73
2023/03/29 03:55:54;;;;;;;5.72;3.33;;;5.60;99.90;;;;;;5059886;28;20039;-73
2023/03/29 03:58:20;;;;;;;5.65;3.15;;;5.70;99.90;;;;;;5082135;28;20079;-74
2023/03/29 04:00:47;;;;;;;5.68;3.53;;;5.70;99.90;;;;;;5053236;28;20045;-73
2023/03/29 04:03:14;;;;;;;5.22;3.30;;;5.70;99.90;;;;;;5074130;28;20058;-72
2023/03/29 04:05:40;;;;;;;;;;;5.70;99.90;;;;;;5059498;28;20040;-72
2023/03/29 04:08:06;;;;;;;4.72;3.30;;;5.70;99.90;;;;;;5071079;28;20420;-73
2023/03/29 04:10:33;;;;;;;;;;;5.70;99.90;;;;;;5055124;28;20052;-72
2023/03/29 04:13:03;;;;;;;5.80;3.53;;;5.70;99.90;;;;;;5083337;28;19923;-71
2023/03/29 04:15:30;;;;;;;6.38;3.50;;;5.80;99.90;;;;;;5081478;28;20044;-71
2023/03/29 04:17:57;;;;;;;6.80;3.92;;;5.80;99.90;;;;;;5078715;28;20040;-71
2023/03/29 04:20:23;;;;;;;5.88;3.70;;;5.80;99.90;;;;;;5087682;28;20051;-71
2023/03/29 04:22:50;;;;;;;4.72;3.45;;;5.80;99.90;;;;;;5084685;28;20055;-71
2023/03/29 04:25:15;;;;;;;6.53;3.83;;;5.80;99.90;;;;;;5055482;28;20032;-71
2023/03/29 04:27:41;;;;;;;5.82;4.10;;;5.80;99.90;;;;;;5082542;28;20395;-71
2023/03/29 04:30:08;;;;;;;5.20;3.50;;;5.80;99.90;;;;;;5089831;28;20043;-72
2023/03/29 04:32:34;;;;;;;5.82;3.80;;;5.80;99.90;;;;;;5071485;28;20069;-71
2023/03/29 04:35:00;;;;;;;7.60;4.05;;;5.80;99.90;;;;;;5087277;28;20426;-71
2023/03/29 04:37:26;;;;;;;6.05;3.80;;;5.80;99.90;;;;;;5073871;28;20048;-71
2023/03/29 04:39:53;;;;;;;4.90;3.70;;;5.80;99.90;;;;;;5070670;28;20519;-72
2023/03/29 04:42:19;;;;;;;6.13;3.50;;;5.80;99.90;;;;;;5078519;28;20075;-72
2023/03/29 04:44:45;;;;;;;6.40;3.83;;;5.80;99.90;;;;;;5088334;28;20105;-71
2023/03/29 04:47:12;;;;;;;6.68;3.60;;;5.80;99.90;;;;;;5069215;28;20047;-72
2023/03/29 04:49:38;;;;;;;6.22;3.85;;;5.80;99.90;;;;;;5081048;28;20040;-71
2023/03/29 04:52:04;;;;;;;;;;;5.80;99.90;;;;;;5088314;28;20100;-71
2023/03/29 04:54:30;;;;;;;6.30;3.92;;;5.80;99.90;;;;;;5083562;28;19927;-72
2023/03/29 04:56:56;;;;;;;6.07;3.72;;;5.90;99.90;;;;;;5088019;28;20048;-72
2023/03/29 04:59:22;;;;;;;4.95;3.92;;;5.90;99.90;;;;;;5060822;28;20052;-72
2023/03/29 05:01:47;;;;;;;7.75;4.38;;;5.90;99.90;;;;;;5084917;28;20048;-73
2023/03/29 05:04:13;;;;;;;7.25;4.40;;;5.90;99.90;;;;;;5082931;28;20036;-72
2023/03/29 05:06:40;;;;;;;5.93;4.10;;;5.90;99.90;;;;;;5080584;28;20093;-72
2023/03/29 05:09:06;;;;;;;;;;;5.90;99.90;;;;;;5077534;28;20050;-72
2023/03/29 05:11:32;;;;;;;5.55;3.85;;;5.90;99.90;;;;;;5079944;28;19920;-72
2023/03/29 05:14:01;;;;;;;6.03;4.13;;;5.90;99.90;;;;;;5078933;28;20033;-72
2023/03/29 05:16:30;;;;;;;6.05;3.78;;;5.90;99.90;;;;;;5078357;28;20044;-72
2023/03/29 05:18:57;;;;;;;5.53;3.80;;;5.90;99.90;;;;;;5077512;28;20033;-73
2023/03/29 05:21:25;;;;;;;5.30;3.50;;;5.90;99.90;;;;;;5077042;28;20037;-72
2023/03/29 05:23:51;;;;;;;3.90;3.08;;;5.90;99.90;;;;;;5078226;28;20089;-71
2023/03/29 05:26:16;;;;;;;5.88;4.20;;;5.90;99.90;;;;;;5073644;28;20048;-72
2023/03/29 05:28:42;;;;;;;5.75;3.50;;;5.90;99.90;;;;;;5077832;28;20105;-73
2023/03/29 05:31:09;;;;;;;5.47;3.88;;;5.90;99.90;;;;;;5067910;28;20086;-72
2023/03/29 05:33:35;;;;;;;6.20;3.72;;;6.00;99.90;;;;;;5080196;28;20577;-72
2023/03/29 05:36:12;;;;;;;5.93;4.00;;;6.00;99.90;;;;;;5075770;28;20036;-73
2023/03/29 05:38:39;;;;;;;5.25;3.40;;;6.00;99.90;;;;;;5079069;28;20092;-72
2023/03/29 05:41:05;;;;;;;5.90;4.07;;;6.00;99.90;;;;;;5085943;28;20708;-73
2023/03/29 05:43:32;;;;;;;6.65;3.70;;;6.00;99.90;;;;;;5086940;28;20051;-72
2023/03/29 05:45:57;;;;;;;6.47;3.95;;;6.00;99.90;;;;;;5057669;28;20044;-72
2023/03/29 05:48:24;;;;;;;5.22;3.88;;;6.00;99.90;;;;;;5064717;28;20054;-72
2023/03/29 05:50:52;;;;;;;5.45;3.67;;;6.00;99.90;;;;;;5084334;28;20043;-71
2023/03/29 05:53:19;;;;;;;5.35;3.70;;;6.00;99.90;;;;;;5085448;28;20054;-73
2023/03/29 05:55:46;;;;;;;7.00;4.03;;;6.00;99.90;;;;;;5087180;28;20032;-73
2023/03/29 05:58:12;;;;;;;;;;;6.10;99.90;;;;;;5078277;28;20429;-72
2023/03/29 06:00:41;;;;;;;7.80;4.30;;;6.00;99.90;;;;;;5079023;28;19924;-73
2023/03/29 06:03:13;;;;;;;5.22;3.90;;;6.10;99.90;;;;;;5061597;28;20064;-72
2023/03/29 06:05:39;;;;;;;7.68;4.47;;;6.10;99.90;;;;;;5076574;28;20643;-72
2023/03/29 06:08:05;;;;;;;6.07;4.13;;;6.10;99.90;;;;;;5079397;28;20067;-72
2023/03/29 06:10:31;;;;;;;5.88;4.35;;;6.10;99.90;;;;;;5048138;28;20131;-74
2023/03/29 06:12:57;;;;;;;4.97;3.72;;;6.10;99.90;;;;;;5082020;28;20051;-72
2023/03/29 06:15:24;;;;;;;6.28;4.30;;;6.20;99.90;;;;;;5072256;28;20043;-71
2023/03/29 06:17:50;;;;;;;;;;;6.20;99.90;;;;;;5073633;28;20105;-71
2023/03/29 06:20:16;;;;;;;7.20;4.18;;;6.20;99.90;;;;;;5059914;28;19920;-70
2023/03/29 06:22:42;;;;;;;5.35;3.97;;;6.20;99.90;;;;;;5081993;28;20043;-71
2023/03/29 06:25:09;;;;;;;4.10;3.53;;;6.20;99.90;;;;;;5052035;28;20048;-71
2023/03/29 06:27:36;;;;;;;6.18;3.95;;;6.20;99.90;;;;;;5083183;28;20075;-71
2023/03/29 06:30:03;;;;;;;4.45;3.50;;;6.30;99.90;;;;;;5077622;28;20047;-71
2023/03/29 06:32:28;;;;;;;7.65;4.40;;;6.20;99.90;;;;;;5081208;28;20043;-71
2023/03/29 06:34:54;;;;;;;5.90;3.60;;;6.30;99.90;;;;;;5063450;28;20446;-71
2023/03/29 06:37:21;;;;;;;4.78;4.00;;;6.30;99.90;;;;;;5087406;28;20218;-71
2023/03/29 06:39:55;;;;;;;6.90;4.15;;;6.30;99.90;;;;;;5078404;28;20455;-71
2023/03/29 06:42:22;;;;;;;6.03;4.07;;;6.30;99.90;;;;;;5068915;28;20094;-71
2023/03/29 06:44:48;;;;;;;7.50;4.53;;;6.40;99.90;;;;;;5062187;28;20036;-71
2023/03/29 06:47:16;;;;;;;6.72;3.60;;;6.40;99.90;;;;;;5080249;28;20048;-71
2023/03/29 06:49:42;;;;;;;6.03;3.80;;;6.40;99.90;;;;;;5078633;28;20124;-71
2023/03/29 06:52:08;;;;;;;7.10;3.83;;;6.50;99.90;;;;;;5075546;28;20071;-72
2023/03/29 06:54:34;;;;;;;7.13;4.82;;;6.50;99.90;;;;;;5065949;28;20072;-71
2023/03/29 06:57:00;;;;;;;6.55;4.50;;;6.50;99.90;;;;;;5082231;28;20094;-70
2023/03/29 06:59:27;;;;;;;7.97;4.88;;;6.60;99.90;;;;;;5079375;28;20063;-71
2023/03/29 07:01:53;;;;;;;6.65;4.45;;;6.50;99.90;;;;;;5068618;28;20094;-71
2023/03/29 07:04:22;;;;;;;5.53;4.43;;;6.60;99.90;;;;;;5077811;28;20058;-71
2023/03/29 07:06:57;;;;;;;6.95;4.43;;;6.60;99.90;;;;;;5077274;28;20167;-71
2023/03/29 07:09:25;;;;;;;7.18;4.60;;;6.70;99.90;;;;;;5075659;28;20044;-71
2023/03/29 07:11:50;;;;;;;7.88;4.45;;;6.90;99.90;;;;;;5073691;28;20040;-70
2023/03/29 07:14:16;;;;;;;6.38;4.70;;;7.20;99.90;;;;;;5074096;28;20047;-71
2023/03/29 07:16:45;;;;;;;7.28;4.70;;;7.30;99.90;;;;;;5074335;28;20040;-71
2023/03/29 07:19:12;;;;;;;7.22;4.60;;;7.20;99.90;;;;;;5063691;28;20050;-72
2023/03/29 07:21:38;;;;;;;7.32;4.57;;;7.20;99.90;;;;;;5089391;28;20072;-70
2023/03/29 07:24:05;;;;;;;6.90;4.57;;;7.20;99.90;;;;;;5080731;28;20040;-71
2023/03/29 07:26:31;;;;;;;7.65;4.68;;;7.30;99.90;;;;;;5085344;28;20097;-71
2023/03/29 07:28:57;;;;;;;7.22;5.00;;;7.20;99.90;;;;;;5079336;28;20040;-71
2023/03/29 07:31:23;;;;;;;5.40;4.22;;;7.30;99.90;;;;;;5078625;28;20036;-71
2023/03/29 07:33:51;;;;;;;6.80;4.70;;;7.20;99.90;;;;;;5079703;28;20063;-70
2023/03/29 07:36:18;;;;;;;6.43;4.53;;;7.20;99.90;;;;;;5080684;28;20114;-71
2023/03/29 07:38:44;;;;;;;7.97;4.65;;;7.20;99.90;;;;;;5080581;28;20109;-70
2023/03/29 07:41:10;;;;;;;5.88;4.20;;;7.10;99.90;;;;;;5075284;28;20165;-70
2023/03/29 07:43:35;;;;;;;7.30;5.43;;;7.10;99.90;;;;;;5076583;28;20044;-69
2023/03/29 07:46:04;;;;;;;6.05;4.65;;;7.00;99.90;;;;;;5075934;28;20044;-70
2023/03/29 07:48:31;;;;;;;9.35;4.80;;;7.00;99.90;;;;;;5089902;28;20436;-71
2023/03/29 07:50:57;;;;;;;8.43;5.50;;;7.10;99.90;;;;;;5087062;28;20705;-71
2023/03/29 07:53:23;;;;;;;7.90;5.10;;;7.00;99.90;;;;;;5082596;28;20448;-70
2023/03/29 07:55:51;;;;;;;7.47;5.10;;;7.00;99.90;;;;;;5058439;28;20119;-71
2023/03/29 07:58:17;;;;;;;8.93;5.20;;;7.10;99.90;;;;;;5080593;28;20536;-70
2023/03/29 08:00:42;;;;;;;6.75;5.13;;;7.20;99.90;;;;;;5069453;28;20068;-71
2023/03/29 08:03:10;;;;;;;6.45;5.30;;;7.20;99.90;;;;;;5068264;28;20098;-70
2023/03/29 08:05:36;;;;;;;10.13;5.43;;;7.30;99.90;;;;;;5086416;28;20051;-71
2023/03/29 08:08:02;;;;;;;6.90;4.90;;;7.40;99.90;;;;;;5082432;28;20596;-71
2023/03/29 08:10:28;;;;;;;6.75;4.63;;;7.50;99.90;;;;;;5063806;28;20066;-71
2023/03/29 08:12:54;;;;;;;5.82;4.97;;;7.50;99.90;;;;;;5083091;28;20491;-70
2023/03/29 08:15:19;;;;;;;5.97;4.65;;;7.60;99.90;;;;;;5078935;28;20075;-71
2023/03/29 08:17:45;;;;;;;6.40;4.72;;;7.70;99.90;;;;;;5078433;28;20071;-71
2023/03/29 08:20:14;;;;;;;6.72;5.40;;;7.80;99.90;;;;;;5080019;28;20221;-70
2023/03/29 08:22:40;;;;;;;8.90;5.55;;;7.90;99.90;;;;;;5077454;28;20450;-70
2023/03/29 08:25:07;;;;;;;7.72;6.00;;;7.90;99.90;;;;;;5060098;28;20067;-70
2023/03/29 08:27:36;;;;;;;8.32;5.43;;;7.90;99.90;;;;;;5079771;28;20087;-71
2023/03/29 08:30:03;;;;;;;9.15;5.63;;;7.90;99.90;;;;;;5071165;28;20048;-70
2023/03/29 08:32:28;;;;;;;9.35;5.35;;;8.00;99.90;;;;;;5057316;28;20564;-71
2023/03/29 08:34:54;;;;;;;8.85;6.00;;;8.10;99.90;;;;;;5059106;28;20048;-70
2023/03/29 08:37:20;;;;;;;7.78;5.20;;;8.10;99.90;;;;;;5076879;28;20033;-70
2023/03/29 08:39:45;;;;;;;7.50;5.43;;;8.10;99.90;;;;;;5078975;28;20515;-71
2023/03/29 08:42:30;;;;;;;6.63;5.13;;;8.20;99.90;;;;;;5058532;28;20036;-70
2023/03/29 08:45:14;;;;;;;9.52;5.45;;;8.30;99.90;;;;;;5075485;28;20048;-70
2023/03/29 08:47:54;;;;;;;8.90;5.88;;;8.30;99.90;;;;;;5071788;28;20075;-71
2023/03/29 08:50:25;;;;;;;6.72;4.68;;;8.30;99.90;;;;;;5059607;28;20075;-70
2023/03/29 08:52:59;;;;;;;7.65;5.10;;;8.50;99.90;;;;;;5079460;28;20089;-71
2023/03/29 08:55:39;;;;;;;7.57;5.25;;;8.60;99.90;;;;;;5068341;28;20079;-70
2023/03/29 08:58:11;;;;;;;8.88;5.65;;;8.70;99.90;;;;;;5075923;28;20040;-70
2023/03/29 09:00:56;;;;;;;7.60;5.30;;;8.70;99.90;;;;;;5078271;28;20060;-71
2023/03/29 09:03:33;;;;;;;7.60;4.95;;;8.70;99.90;;;;;;5073043;28;20122;-70
2023/03/29 09:06:03;;;;;;;8.75;5.78;;;8.90;99.90;;;;;;5078140;28;20090;-70
2023/03/29 09:08:28;;;;;;;7.78;5.18;;;8.90;99.90;;;;;;5058428;28;20446;-73
2023/03/29 09:11:06;;;;;;;7.95;5.28;;;9.10;99.90;;;;;;5073435;28;20131;-72
2023/03/29 09:14:13;;;;;;;8.45;5.57;;;9.20;99.90;;;;;;5078756;28;20032;-72
2023/03/29 09:17:13;;;;;;;8.43;5.38;;;9.30;99.90;;;;;;5061519;28;20072;-72
2023/03/29 09:19:51;;;;;;;9.95;5.68;;;9.30;99.90;;;;;;5074591;28;20070;-72
2023/03/29 09:22:49;;;;;;;9.45;5.90;;;9.50;99.90;;;;;;5076557;28;20119;-73
2023/03/29 09:25:15;;;;;;;7.72;4.72;;;9.60;99.90;;;;;;5064902;28;20052;-72
2023/03/29 09:27:57;;;;;;;7.68;5.30;;;9.80;99.90;;;;;;5076706;28;20044;-73
2023/03/29 09:30:38;;;;;;;9.25;5.80;;;10.00;99.90;;;;;;5066308;28;20093;-72
2023/03/29 09:33:18;;;;;;;11.20;5.68;;;9.90;99.90;;;;;;5076036;28;20047;-72
2023/03/29 09:35:57;;;;;;;13.82;6.07;;;9.90;99.90;;;;;;5062453;28;20040;-72
2023/03/29 09:38:22;;;;;;;10.85;6.05;;;9.90;99.90;;;;;;5072849;28;20063;-72
2023/03/29 09:40:57;;;;;;;10.05;6.03;;;9.90;99.90;;;;;;5059313;28;20487;-72
2023/03/29 09:43:34;;;;;;;11.43;6.30;;;10.00;99.90;;;;;;5082670;28;20048;-72
2023/03/29 09:46:14;;;;;;;12.45;6.72;;;10.10;99.90;;;;;;5075445;28;20123;-72
2023/03/29 09:48:42;;;;;;;10.23;5.88;;;10.10;99.90;;;;;;5072020;28;20483;-72
2023/03/29 09:51:09;;;;;;;12.15;7.03;;;10.20;99.90;;;;;;5085969;28;20048;-72
2023/03/29 09:53:35;;;;;;;11.02;6.70;;;10.30;99.90;;;;;;5085999;28;20039;-72
2023/03/29 09:56:01;;;;;;;13.82;7.10;;;10.30;99.90;;;;;;5076297;28;20071;-73
2023/03/29 09:58:30;;;;;;;13.05;7.00;;;10.30;99.90;;;;;;5079650;28;20060;-73
2023/03/29 10:00:57;;;;;;;10.85;6.55;;;10.20;99.90;;;;;;5072722;28;20043;-72
2023/03/29 10:03:26;;;;;;;14.13;7.43;;;10.30;99.90;;;;;;5083370;28;20044;-73
2023/03/29 10:05:54;;;;;;;13.90;6.70;;;10.30;99.90;;;;;;5079752;28;20078;-74
2023/03/29 10:08:59;;;;;;;11.13;6.95;;;10.30;99.90;;;;;;5059478;28;20079;-74
2023/03/29 10:11:31;;;;;;;15.10;7.10;;;10.30;99.90;;;;;;5073361;28;20109;-73
2023/03/29 10:14:03;;;;;;;12.05;7.35;;;10.30;99.90;;;;;;5073094;28;20130;-73
2023/03/29 10:16:35;;;;;;;12.82;7.00;;;10.40;99.90;;;;;;5061395;28;20051;-73
2023/03/29 10:19:29;;;;;;;10.73;7.05;;;10.30;99.90;;;;;;5064197;28;20040;-73
2023/03/29 10:21:59;;;;;;;12.48;7.60;;;10.30;99.90;;;;;;5078728;28;20561;-74
2023/03/29 10:24:26;;;;;;;12.32;7.18;;;10.20;99.90;;;;;;5079774;28;20045;-73
2023/03/29 10:27:01;;;;;;;11.90;7.40;;;10.30;99.90;;;;;;5055181;28;20089;-73
2023/03/29 10:29:39;;;;;;;11.55;6.70;;;10.20;99.90;;;;;;5074205;28;20052;-72
2023/03/29 10:32:17;;;;;;;11.68;7.07;;;10.30;99.90;;;;;;5080382;28;20044;-73
2023/03/29 10:34:45;;;;;;;12.43;7.68;;;10.40;99.90;;;;;;5080833;28;20045;-73
2023/03/29 10:37:13;;;;;;;11.02;7.07;;;10.40;99.90;;;;;;5056640;28;20503;-72
2023/03/29 10:39:39;;;;;;;11.40;6.88;;;10.50;99.90;;;;;;5069120;28;20482;-71
2023/03/29 10:42:07;;;;;;;12.00;7.63;;;10.50;99.90;;;;;;5081149;28;20054;-73
2023/03/29 10:44:36;;;;;;;9.45;6.68;;;10.60;99.90;;;;;;5078212;28;20063;-71
2023/03/29 10:47:19;;;;;;;12.80;7.97;;;10.70;99.90;;;;;;5083177;28;20032;-71
2023/03/29 10:49:49;;;;;;;12.32;7.60;;;10.80;99.90;;;;;;5073006;28;20456;-72
2023/03/29 10:52:16;;;;;;;11.65;7.70;;;10.90;99.90;;;;;;5079718;28;20043;-72
2023/03/29 10:54:43;;;;;;;13.02;8.63;;;11.10;99.90;;;;;;5074728;28;20523;-73
2023/03/29 10:57:15;;;;;;;11.95;8.10;;;11.10;99.90;;;;;;5082106;28;20438;-73
2023/03/29 10:59:46;;;;;;;12.70;8.57;;;11.10;99.90;;;;;;5059224;28;20060;-73
2023/03/29 11:02:18;;;;;;;10.98;8.15;;;11.30;99.90;;;;;;5083743;28;20091;-73
2023/03/29 11:04:59;;;;;;;10.60;7.20;;;11.40;99.90;;;;;;5083938;28;20072;-74
2023/03/29 11:07:34;;;;;;;10.30;7.22;;;11.70;99.90;;;;;;5058366;28;20445;-74
2023/03/29 11:10:23;;;;;;;12.65;8.20;;;11.90;99.90;;;;;;5076337;28;20443;-74
2023/03/29 11:13:30;;;;;;;9.55;7.18;;;11.90;99.90;;;;;;5060953;28;20037;-74
2023/03/29 11:16:13;;;;;;;13.77;8.23;;;12.00;99.90;;;;;;5065459;28;20052;-70
2023/03/29 11:18:57;;;;;;;12.18;7.88;;;12.10;99.90;;;;;;5071722;28;21546;-70
2023/03/29 11:21:35;;;;;;;12.68;7.93;;;12.10;99.90;;;;;;5057750;28;20408;-70
2023/03/29 11:24:10;;;;;;;13.10;9.00;;;12.30;99.90;;;;;;5074433;28;20387;-70
2023/03/29 11:26:45;;;;;;;10.77;7.55;;;12.50;99.90;;;;;;5064280;28;20044;-70
2023/03/29 11:29:29;;;;;;;10.75;7.07;;;12.80;99.90;;;;;;5086519;28;20050;-70
2023/03/29 11:32:07;;;;;;;11.82;8.25;;;13.00;99.90;;;;;;5078118;28;20045;-70
2023/03/29 11:34:51;;;;;;;12.80;8.30;;;13.10;99.90;;;;;;5061998;28;20063;-70
2023/03/29 11:37:34;;;;;;;12.95;8.25;;;13.00;99.90;;;;;;5078188;28;20500;-70
2023/03/29 11:40:31;;;;;;;10.35;7.70;;;12.80;99.90;;;;;;5077677;28;20123;-71
2023/03/29 11:42:58;;;;;;;11.73;8.50;;;12.90;99.90;;;;;;5060778;28;20070;-70
2023/03/29 11:45:38;;;;;;;12.45;8.40;;;12.70;99.90;;;;;;5082057;28;20047;-70
2023/03/29 11:48:11;;;;;;;9.55;7.63;;;12.50;99.90;;;;;;5082651;28;20165;-70
2023/03/29 11:50:49;;;;;;;11.88;7.50;;;12.50;99.90;;;;;;5056950;28;20109;-70
2023/03/29 11:53:39;;;;;;;11.80;8.50;;;12.60;99.90;;;;;;5076828;28;20165;-70
2023/03/29 11:56:13;;;;;;;10.40;7.75;;;12.60;99.90;;;;;;5082201;28;20173;-70
2023/03/29 11:58:45;;;;;;;11.52;8.45;;;12.60;99.90;;;;;;5075266;28;20048;-70
2023/03/29 12:01:15;;;;;;;11.25;7.63;;;12.50;99.90;;;;;;5074705;28;20049;-71
2023/03/29 12:03:59;;;;;;;11.35;6.80;;;12.70;99.90;;;;;;5077142;28;20147;-71
2023/03/29 12:06:36;;;;;;;10.45;7.57;;;12.90;99.90;;;;;;5083759;28;20078;-70
2023/03/29 12:09:36;;;;;;;13.50;7.65;;;13.00;99.90;;;;;;5076348;28;20127;-71
2023/03/29 12:12:16;;;;;;;11.10;8.10;;;12.90;99.90;;;;;;5074106;28;20482;-70
2023/03/29 12:15:09;;;;;;;9.15;7.07;;;12.90;99.90;;;;;;5066990;28;20528;-70
2023/03/29 12:17:42;;;;;;;10.00;7.10;;;12.90;99.90;;;;;;5080613;28;20055;-70
2023/03/29 12:20:16;;;;;;;9.88;6.60;;;13.00;99.90;;;;;;5082279;28;20040;-70
2023/03/29 12:22:45;;;;;;;10.07;6.47;;;13.20;99.90;;;;;;5067862;28;20444;-70
2023/03/29 12:25:16;;;;;;;9.13;6.88;;;13.60;99.90;;;;;;5067772;28;20054;-70
2023/03/29 12:27:48;;;;;;;8.63;6.78;;;13.60;99.90;;;;;;5082771;28;20052;-70
2023/03/29 12:30:40;;;;;;;8.48;6.47;;;13.70;99.90;;;;;;5081847;28;20044;-70
2023/03/29 12:33:40;;;;;;;7.15;6.07;;;13.60;99.90;;;;;;5082861;28;20036;-70
2023/03/29 12:36:05;;;;;;;7.53;5.97;;;13.70;99.90;;;;;;5060213;28;20315;-70
2023/03/29 12:38:32;;;;;;;8.02;6.07;;;13.80;99.90;;;;;;5077342;28;20542;-69
2023/03/29 12:41:00;;;;;;;8.13;6.07;;;13.70;99.90;;;;;;5075467;28;20124;-70
2023/03/29 12:43:31;;;;;;;7.15;5.90;;;13.80;99.90;;;;;;5064524;28;20446;-71
2023/03/29 12:46:07;;;;;;;6.82;6.00;;;13.90;99.90;;;;;;5071223;28;20468;-70
2023/03/29 12:48:36;;;;;;;8.32;6.03;;;13.90;99.90;;;;;;5071805;28;20074;-70
2023/03/29 12:51:06;;;;;;;9.98;6.05;;;13.90;99.90;;;;;;5078649;28;20491;-70
2023/03/29 12:53:40;;;;;;;7.22;5.32;;;13.80;99.90;;;;;;5085015;28;20455;-70
2023/03/29 12:56:12;;;;;;;9.02;5.97;;;14.00;99.90;;;;;;5071303;28;20067;-70
2023/03/29 12:58:38;;;;;;;7.95;5.72;;;13.80;98.10;;;;;;5074929;28;20525;-69
2023/03/29 13:01:22;;;;;;;7.60;5.68;;;13.90;99.90;;;;;;5075134;28;20080;-69
2023/03/29 13:03:50;;;;;;;8.82;5.93;;;13.90;95.10;;;;;;5085219;28;20048;-70
2023/03/29 13:06:47;;;;;;;8.25;6.00;;;13.70;95.50;;;;;;5075517;28;20486;-70
2023/03/29 13:09:47;;;;;;;6.03;5.00;;;13.70;99.90;;;;;;5060334;28;20042;-70
2023/03/29 13:12:41;;;;;;;7.32;5.97;;;13.70;99.90;;;;;;5055925;28;20056;-70
2023/03/29 13:15:22;;;;;;;5.80;5.13;;;13.60;99.90;;;;;;5074267;28;20044;-70
2023/03/29 13:17:51;;;;;;;8.02;5.78;;;13.70;99.90;;;;;;5058767;28;20314;-70